Time;durP1;ratioP1;P1;durP2;ratioP2;P2;SDS_P1;SDS_P2;PMS_P1;PMS_P2;Temp;Humidity;BMP_temperature;BMP_pressure;BME280_temperature;BME280_humidity;BME280_pressure;Samples;Min_cycle;Max_cycle;Signal;HPM_P1;HPM_P2
2022/01/25 00:08:53;;;;;;;25.93;22.10;;;1.10;99.90;;;;;;5069806;28;20204;-86
2022/01/25 00:25:30;;;;;;;24.57;21.30;;;1.20;99.90;;;;;;5095511;28;20224;-85
2022/01/25 00:28:18;;;;;;;26.80;23.57;;;1.20;99.90;;;;;;5095109;28;20218;-86
2022/01/25 00:30:59;;;;;;;31.10;22.87;;;1.20;99.90;;;;;;5095499;28;20211;-85
2022/01/25 00:33:29;;;;;;;30.90;25.33;;;1.30;99.90;;;;;;5095230;28;20253;-86
2022/01/25 00:35:59;;;;;;;36.47;25.07;;;1.20;99.90;;;;;;5095203;28;20300;-86
2022/01/25 00:38:28;;;;;;;29.17;23.70;;;1.20;99.90;;;;;;5094801;28;20284;-86
2022/01/25 00:40:56;;;;;;;27.70;22.77;;;1.30;99.90;;;;;;5094599;28;20251;-86
2022/01/25 00:43:26;;;;;;;33.43;24.23;;;1.30;99.90;;;;;;5095330;28;20235;-86
2022/01/25 00:45:59;;;;;;;31.63;24.93;;;1.30;99.90;;;;;;5093637;28;20239;-86
2022/01/25 00:48:41;;;;;;;33.50;25.60;;;1.30;99.90;;;;;;5094371;28;20201;-85
2022/01/25 00:51:34;;;;;;;39.13;25.37;;;1.30;99.90;;;;;;5094445;28;20247;-85
2022/01/25 00:54:10;;;;;;;29.10;23.10;;;1.30;99.90;;;;;;5094663;28;20220;-86
2022/01/25 00:56:44;;;;;;;25.17;22.53;;;1.30;99.90;;;;;;5095284;28;20285;-85
2022/01/25 00:59:16;;;;;;;33.53;25.53;;;1.30;99.90;;;;;;5094503;28;20292;-86
2022/01/25 01:01:44;;;;;;;27.77;22.77;;;1.40;99.90;;;;;;5095416;28;20287;-85
2022/01/25 01:04:13;;;;;;;31.70;24.17;;;1.30;99.90;;;;;;5094958;28;20204;-86
2022/01/25 01:06:45;;;;;;;32.00;26.00;;;1.30;99.90;;;;;;5094918;28;20272;-85
2022/01/25 01:09:14;;;;;;;30.37;24.07;;;1.40;99.90;;;;;;5094567;28;20200;-86
2022/01/25 01:11:49;;;;;;;26.83;22.30;;;1.40;99.90;;;;;;5094862;28;20247;-85
2022/01/25 01:14:25;;;;;;;26.80;22.77;;;1.40;99.90;;;;;;5094784;28;20291;-86
2022/01/25 01:17:12;;;;;;;27.77;21.90;;;1.40;99.90;;;;;;5094549;28;20287;-85
2022/01/25 01:30:56;;;;;;;32.50;22.97;;;1.40;99.90;;;;;;5094152;28;20205;-85
2022/01/25 01:36:55;;;;;;;29.60;22.83;;;1.40;99.90;;;;;;5094844;28;20267;-85
2022/01/25 01:39:45;;;;;;;30.97;23.97;;;1.40;99.90;;;;;;5093865;28;20311;-85
2022/01/25 01:42:35;;;;;;;24.97;20.33;;;1.50;99.90;;;;;;5093770;28;20283;-85
2022/01/25 01:45:24;;;;;;;34.17;22.20;;;1.50;99.90;;;;;;5094503;28;20220;-86
2022/01/25 01:47:52;;;;;;;37.83;23.40;;;1.50;99.90;;;;;;5094356;28;20268;-85
2022/01/25 01:50:29;;;;;;;24.77;20.43;;;1.50;99.90;;;;;;5093914;28;20295;-85
2022/01/25 01:52:58;;;;;;;27.47;23.03;;;1.50;99.90;;;;;;5094420;28;20242;-85
2022/01/25 01:55:29;;;;;;;28.87;23.83;;;1.50;99.90;;;;;;5093922;28;20312;-86
2022/01/25 01:57:58;;;;;;;25.97;23.13;;;1.60;99.90;;;;;;5093895;28;20295;-85
2022/01/25 02:00:31;;;;;;;29.90;23.87;;;1.50;99.90;;;;;;5092589;28;20223;-85
2022/01/25 02:03:00;;;;;;;29.10;23.67;;;1.60;99.90;;;;;;5093941;28;20211;-86
2022/01/25 02:05:30;;;;;;;28.17;23.73;;;1.60;99.90;;;;;;5094197;28;20220;-86
2022/01/25 02:07:58;;;;;;;26.97;21.23;;;1.60;99.90;;;;;;5093858;28;20204;-85
2022/01/25 02:10:29;;;;;;;26.63;22.33;;;1.70;99.90;;;;;;5093144;28;20283;-86
2022/01/25 02:12:58;;;;;;;27.03;22.57;;;1.70;99.90;;;;;;5093454;28;20204;-85
2022/01/25 02:15:28;;;;;;;30.57;23.23;;;1.70;99.90;;;;;;5093023;28;20220;-85
2022/01/25 02:23:29;;;;;;;26.87;22.33;;;1.70;99.90;;;;;;5093790;28;20208;-85
2022/01/25 02:26:00;;;;;;;24.93;22.23;;;1.70;99.90;;;;;;5093281;28;20225;-86
2022/01/25 02:28:31;;;;;;;26.80;21.53;;;1.80;99.90;;;;;;5093721;28;20284;-85
2022/01/25 02:31:00;;;;;;;28.20;22.30;;;1.80;99.90;;;;;;5092899;28;20287;-85
2022/01/25 02:33:29;;;;;;;25.20;21.17;;;1.80;99.90;;;;;;5093296;28;20237;-85
2022/01/25 02:36:01;;;;;;;25.17;21.03;;;1.80;99.90;;;;;;5093182;28;20319;-86
2022/01/25 02:38:31;;;;;;;27.60;20.83;;;1.80;99.90;;;;;;5093144;28;20231;-85
2022/01/25 02:41:01;;;;;;;30.27;21.40;;;1.80;99.90;;;;;;5092611;28;20255;-85
2022/01/25 02:43:29;;;;;;;27.67;20.67;;;1.80;99.90;;;;;;5093061;28;20287;-85
2022/01/25 02:46:24;;;;;;;29.93;22.33;;;1.80;99.90;;;;;;5093016;28;20288;-85
2022/01/25 02:48:54;;;;;;;25.07;20.67;;;1.80;99.90;;;;;;5092304;28;20216;-85
2022/01/25 02:51:26;;;;;;;22.20;19.80;;;1.80;99.90;;;;;;5092910;28;20303;-85
2022/01/25 02:53:55;;;;;;;29.57;21.33;;;1.80;99.90;;;;;;5093114;28;20227;-85
2022/01/25 02:56:25;;;;;;;24.23;20.07;;;1.80;99.90;;;;;;5092843;28;20243;-86
2022/01/25 02:58:55;;;;;;;25.63;20.97;;;1.80;99.90;;;;;;5093015;28;20291;-86
2022/01/25 03:01:24;;;;;;;22.13;19.70;;;1.80;99.90;;;;;;5092782;28;20305;-85
2022/01/25 03:03:52;;;;;;;25.80;21.67;;;1.80;99.90;;;;;;5092953;28;20211;-85
2022/01/25 03:06:24;;;;;;;54.03;23.13;;;1.80;99.90;;;;;;5092818;28;20307;-85
2022/01/25 03:08:54;;;;;;;24.83;20.93;;;1.80;99.90;;;;;;5092442;28;20299;-85
2022/01/25 03:11:24;;;;;;;23.33;19.33;;;1.80;99.90;;;;;;5092662;28;20197;-86
2022/01/25 03:13:56;;;;;;;26.87;21.90;;;1.80;99.90;;;;;;5092532;28;20291;-85
2022/01/25 03:16:31;;;;;;;27.83;20.10;;;1.80;99.90;;;;;;5092696;28;20271;-85
2022/01/25 03:19:03;;;;;;;24.27;20.03;;;1.80;99.90;;;;;;5092181;28;20226;-85
2022/01/25 03:21:38;;;;;;;26.57;21.80;;;1.80;99.90;;;;;;5092666;28;20289;-85
2022/01/25 03:24:08;;;;;;;30.93;22.23;;;1.80;99.90;;;;;;5092534;28;20208;-85
2022/01/25 03:26:37;;;;;;;23.40;19.77;;;1.80;99.90;;;;;;5092858;28;20254;-85
2022/01/25 03:29:05;;;;;;;22.70;19.53;;;1.80;99.90;;;;;;5092320;28;20212;-85
2022/01/25 03:31:34;;;;;;;24.60;20.93;;;1.80;99.90;;;;;;5092692;28;20283;-86
2022/01/25 03:34:03;;;;;;;32.07;22.60;;;1.80;99.90;;;;;;5092422;28;20200;-85
2022/01/25 03:36:32;;;;;;;27.60;20.60;;;1.80;99.90;;;;;;5092207;28;20287;-85
2022/01/25 03:39:01;;;;;;;21.93;19.23;;;1.80;99.90;;;;;;5092163;28;20208;-85
2022/01/25 03:41:34;;;;;;;26.93;21.30;;;1.80;99.90;;;;;;5092515;28;20230;-85
2022/01/25 03:44:02;;;;;;;25.80;21.37;;;1.80;99.90;;;;;;5092257;28;20288;-85
2022/01/25 03:46:39;;;;;;;25.10;20.77;;;1.90;99.90;;;;;;5092487;28;20227;-85
2022/01/25 03:51:54;;;;;;;26.40;21.63;;;1.90;99.90;;;;;;5092465;28;20276;-85
2022/01/25 03:54:23;;;;;;;22.57;20.10;;;1.90;99.90;;;;;;5092557;28;20200;-85
2022/01/25 03:56:51;;;;;;;23.87;20.20;;;1.90;99.90;;;;;;5092378;28;20255;-85
2022/01/25 03:59:19;;;;;;;24.37;21.60;;;1.90;99.90;;;;;;5091757;28;20209;-85
2022/01/25 04:01:48;;;;;;;27.67;21.90;;;1.90;99.90;;;;;;5091574;28;20216;-85
2022/01/25 04:04:21;;;;;;;26.03;21.80;;;1.90;99.90;;;;;;5092328;28;20232;-85
2022/01/25 04:06:52;;;;;;;25.50;20.97;;;1.90;99.90;;;;;;5092319;28;20287;-85
2022/01/25 04:09:22;;;;;;;22.43;20.03;;;1.90;99.90;;;;;;5091661;28;20260;-85
2022/01/25 04:11:50;;;;;;;26.07;21.90;;;1.90;99.90;;;;;;5092269;28;20284;-85
2022/01/25 04:14:19;;;;;;;27.50;22.87;;;1.90;99.90;;;;;;5092025;28;20200;-85
2022/01/25 04:16:55;;;;;;;22.97;19.90;;;1.90;99.90;;;;;;5091957;28;20291;-85
2022/01/25 04:19:32;;;;;;;22.07;19.73;;;1.90;99.90;;;;;;5091736;28;20234;-85
2022/01/25 04:25:04;;;;;;;26.77;21.70;;;1.90;99.90;;;;;;5095265;28;20288;-85
2022/01/25 04:27:34;;;;;;;23.53;18.50;;;1.90;99.90;;;;;;5095866;28;20296;-85
2022/01/25 04:30:04;;;;;;;32.43;22.17;;;1.90;99.90;;;;;;5095139;28;20287;-85
2022/01/25 04:32:40;;;;;;;24.57;20.73;;;1.90;99.90;;;;;;5095604;28;20283;-84
2022/01/25 04:35:26;;;;;;;25.47;20.30;;;1.90;99.90;;;;;;5095390;28;20227;-84
2022/01/25 04:49:09;;;;;;;29.83;19.17;;;1.90;99.90;;;;;;5094841;28;20236;-85
2022/01/25 04:54:35;;;;;;;24.00;18.40;;;1.80;99.90;;;;;;5095265;28;20235;-85
2022/01/25 04:57:19;;;;;;;24.57;19.00;;;1.80;99.90;;;;;;5095250;28;20212;-85
2022/01/25 04:59:53;;;;;;;24.10;19.03;;;1.80;99.90;;;;;;5094619;28;20287;-85
2022/01/25 05:02:32;;;;;;;23.23;18.50;;;1.80;99.90;;;;;;5094880;28;20288;-85
2022/01/25 05:05:06;;;;;;;31.60;21.53;;;1.70;99.90;;;;;;5095174;28;20302;-85
2022/01/25 05:07:41;;;;;;;27.17;20.57;;;1.70;99.90;;;;;;5095223;28;20263;-85
2022/01/25 05:10:10;;;;;;;23.23;18.53;;;1.70;99.90;;;;;;5094740;28;20227;-85
2022/01/25 05:12:44;;;;;;;25.60;18.77;;;1.70;99.90;;;;;;5094747;28;20204;-85
2022/01/25 05:16:00;;;;;;;24.80;18.67;;;1.60;99.90;;;;;;5094996;28;20232;-85
2022/01/25 05:18:38;;;;;;;25.20;19.23;;;1.60;99.90;;;;;;5094631;28;20204;-85
2022/01/25 05:23:52;;;;;;;27.77;19.73;;;1.60;99.90;;;;;;5094883;28;20291;-84
2022/01/25 05:26:21;;;;;;;31.97;20.27;;;1.70;99.90;;;;;;5094583;28;20240;-85
2022/01/25 05:28:51;;;;;;;24.30;20.53;;;1.70;99.90;;;;;;5094287;28;20287;-85
2022/01/25 05:31:19;;;;;;;37.57;21.10;;;1.70;99.90;;;;;;5094392;28;20201;-85
2022/01/25 05:33:47;;;;;;;25.67;19.77;;;1.80;99.90;;;;;;5094575;28;20230;-84
2022/01/25 05:36:17;;;;;;;38.33;21.43;;;1.80;99.90;;;;;;5093728;28;20311;-85
2022/01/25 05:38:47;;;;;;;29.43;20.90;;;1.80;99.90;;;;;;5093892;28;20260;-85
2022/01/25 05:41:15;;;;;;;27.37;21.83;;;1.80;99.90;;;;;;5094251;28;20216;-85
2022/01/25 05:44:12;;;;;;;25.07;19.40;;;1.80;99.90;;;;;;5094257;28;20311;-85
2022/01/25 05:46:47;;;;;;;27.27;20.97;;;1.90;99.90;;;;;;5094212;28;20283;-85
2022/01/25 05:49:16;;;;;;;25.57;20.17;;;1.90;99.90;;;;;;5093624;28;20204;-85
2022/01/25 05:51:44;;;;;;;25.60;19.73;;;1.90;99.90;;;;;;5094423;28;20213;-85
2022/01/25 05:54:13;;;;;;;27.33;21.60;;;1.90;99.90;;;;;;5094054;28;20299;-85
2022/01/25 05:56:41;;;;;;;27.73;20.40;;;1.90;99.90;;;;;;5094068;28;20231;-84
2022/01/25 05:59:10;;;;;;;27.48;20.08;;;1.90;99.90;;;;;;5093398;28;20293;-84
2022/01/25 06:01:38;;;;;;;28.57;20.07;;;1.90;99.90;;;;;;5093652;28;20240;-85
2022/01/25 06:04:08;;;;;;;24.17;20.67;;;1.90;99.90;;;;;;5093892;28;20232;-85
2022/01/25 06:06:36;;;;;;;22.97;17.97;;;1.90;99.90;;;;;;5093763;28;20307;-85
2022/01/25 06:09:05;;;;;;;30.20;20.90;;;2.00;99.90;;;;;;5093335;28;20265;-85
2022/01/25 06:11:33;;;;;;;26.07;18.93;;;2.00;99.90;;;;;;5093748;28;20292;-85
2022/01/25 06:14:02;;;;;;;28.17;19.77;;;2.00;99.90;;;;;;5093338;28;20217;-85
2022/01/25 06:16:30;;;;;;;23.80;18.87;;;2.00;99.90;;;;;;5093815;28;20303;-85
2022/01/25 06:18:59;;;;;;;26.77;19.27;;;2.00;99.90;;;;;;5093036;28;20205;-85
2022/01/25 06:21:29;;;;;;;26.50;18.57;;;2.10;99.90;;;;;;5093436;28;20228;-85
2022/01/25 06:23:57;;;;;;;24.07;18.67;;;2.10;99.90;;;;;;5093610;28;20200;-85
2022/01/25 06:26:25;;;;;;;37.70;19.00;;;2.10;99.90;;;;;;5093209;28;20283;-85
2022/01/25 06:28:54;;;;;;;25.33;18.53;;;2.10;99.90;;;;;;5092737;28;20264;-85
2022/01/25 06:31:22;;;;;;;23.13;19.17;;;2.10;99.90;;;;;;5094140;28;20231;-85
2022/01/25 06:33:51;;;;;;;23.83;18.50;;;2.10;99.90;;;;;;5092987;28;20212;-84
2022/01/25 06:36:19;;;;;;;21.83;17.40;;;2.10;99.90;;;;;;5093116;28;20223;-85
2022/01/25 06:38:49;;;;;;;20.57;17.57;;;2.20;99.90;;;;;;5092929;28;20212;-85
2022/01/25 06:41:18;;;;;;;21.53;18.10;;;2.20;99.90;;;;;;5092759;28;20295;-85
2022/01/25 06:43:47;;;;;;;22.40;17.57;;;2.20;99.90;;;;;;5093304;28;20264;-85
2022/01/25 06:46:15;;;;;;;24.97;18.33;;;2.20;99.90;;;;;;5092521;28;20228;-85
2022/01/25 06:48:44;;;;;;;29.10;18.07;;;2.30;99.90;;;;;;5092034;28;20224;-84
2022/01/25 06:51:12;;;;;;;24.80;17.03;;;2.30;99.90;;;;;;5092818;28;20215;-84
2022/01/25 06:53:40;;;;;;;25.77;17.17;;;2.30;99.90;;;;;;5093088;28;20242;-84
2022/01/25 06:56:10;;;;;;;22.77;16.77;;;2.30;99.90;;;;;;5093071;28;20220;-85
2022/01/25 06:58:41;;;;;;;19.57;16.13;;;2.30;99.90;;;;;;5092767;28;20227;-85
2022/01/25 07:01:09;;;;;;;21.00;16.70;;;2.30;99.90;;;;;;5092845;28;20261;-84
2022/01/25 07:03:38;;;;;;;20.47;15.93;;;2.30;99.90;;;;;;5092764;28;20283;-85
2022/01/25 07:06:06;;;;;;;21.93;15.70;;;2.30;99.90;;;;;;5092672;28;20281;-85
2022/01/25 07:08:35;;;;;;;23.93;16.23;;;2.30;99.90;;;;;;5093006;28;20280;-85
2022/01/25 07:11:03;;;;;;;21.17;15.33;;;2.30;99.90;;;;;;5092516;28;20232;-85
2022/01/25 07:13:33;;;;;;;22.37;17.37;;;2.30;99.90;;;;;;5092582;28;20226;-85
2022/01/25 07:16:01;;;;;;;21.20;16.02;;;2.30;99.90;;;;;;5092474;28;20221;-85
2022/01/25 07:18:30;;;;;;;20.30;17.20;;;2.30;99.90;;;;;;5092466;28;20213;-85
2022/01/25 07:20:58;;;;;;;20.67;15.80;;;2.30;99.90;;;;;;5091890;28;20216;-85
2022/01/25 07:23:26;;;;;;;21.30;15.67;;;2.30;99.90;;;;;;5092777;28;20224;-85
2022/01/25 07:25:55;;;;;;;20.03;16.37;;;2.30;99.90;;;;;;5092542;28;20248;-85
2022/01/25 07:28:23;;;;;;;18.07;14.47;;;2.30;99.90;;;;;;5092442;28;20287;-85
2022/01/25 07:30:53;;;;;;;17.67;14.77;;;2.30;99.90;;;;;;5091926;28;20292;-84
2022/01/25 07:33:30;;;;;;;18.57;14.90;;;2.40;99.90;;;;;;5092412;28;20204;-85
2022/01/25 07:36:01;;;;;;;17.00;13.93;;;2.30;99.90;;;;;;5092578;28;20224;-85
2022/01/25 07:38:42;;;;;;;22.37;15.07;;;2.30;99.90;;;;;;5092211;28;20291;-85
2022/01/25 07:41:15;;;;;;;19.33;13.90;;;2.30;99.90;;;;;;5092656;28;20217;-85
2022/01/25 07:43:50;;;;;;;15.27;13.40;;;2.40;99.90;;;;;;5092249;28;20227;-85
2022/01/25 07:46:24;;;;;;;21.03;14.27;;;2.30;99.90;;;;;;5092602;28;20224;-85
2022/01/25 07:48:57;;;;;;;17.40;14.20;;;2.30;99.90;;;;;;5091940;28;20212;-85
2022/01/25 07:51:27;;;;;;;17.27;13.00;;;2.30;99.90;;;;;;5092597;28;20208;-85
2022/01/25 07:53:55;;;;;;;17.20;13.90;;;2.20;99.90;;;;;;5092440;28;20239;-85
2022/01/25 07:56:23;;;;;;;22.43;15.10;;;2.20;99.90;;;;;;5092444;28;20293;-85
2022/01/25 07:58:52;;;;;;;16.47;12.73;;;2.20;99.90;;;;;;5093792;28;20207;-85
2022/01/25 08:01:21;;;;;;;18.03;12.73;;;2.20;99.90;;;;;;5096356;28;20292;-85
2022/01/25 08:03:51;;;;;;;17.77;12.63;;;2.20;99.90;;;;;;5096394;28;20216;-85
2022/01/25 08:06:21;;;;;;;14.40;12.07;;;2.20;99.90;;;;;;5096182;28;20224;-85
2022/01/25 08:08:52;;;;;;;16.90;11.33;;;2.10;99.90;;;;;;5095864;28;20246;-85
2022/01/25 08:11:37;;;;;;;17.33;11.88;;;2.20;99.90;;;;;;5096152;28;20205;-84
2022/01/25 08:14:14;;;;;;;12.10;10.80;;;2.20;99.90;;;;;;5096092;28;20209;-84
2022/01/25 08:16:54;;;;;;;15.73;11.13;;;2.20;99.90;;;;;;5096135;28;20204;-85
2022/01/25 08:19:33;;;;;;;13.77;11.20;;;2.20;99.90;;;;;;5095242;28;20203;-85
2022/01/25 08:22:18;;;;;;;12.10;9.57;;;2.20;99.90;;;;;;5095680;28;20231;-85
2022/01/25 08:25:05;;;;;;;12.90;10.50;;;2.30;99.90;;;;;;5088528;28;20235;-85
2022/01/25 08:27:47;;;;;;;12.68;10.45;;;2.40;99.90;;;;;;5096226;28;20212;-84
2022/01/25 08:30:33;;;;;;;10.87;9.13;;;2.30;99.90;;;;;;5087497;28;20285;-85
2022/01/25 08:33:22;;;;;;;10.63;9.52;;;2.30;99.90;;;;;;5033042;28;20198;-85
2022/01/25 08:35:53;;;;;;;13.80;9.70;;;2.40;99.90;;;;;;5033145;28;20226;-84
2022/01/25 08:38:35;;;;;;;11.40;8.97;;;2.50;99.90;;;;;;5031616;28;20214;-85
2022/01/25 08:41:13;;;;;;;9.87;8.83;;;2.50;99.90;;;;;;5033442;28;20221;-85
2022/01/25 08:43:58;;;;;;;10.30;8.70;;;2.50;99.90;;;;;;5028407;28;20227;-85
2022/01/25 08:46:36;;;;;;;9.37;8.20;;;2.50;99.90;;;;;;5032983;28;20227;-85
2022/01/25 08:49:22;;;;;;;8.70;7.70;;;2.50;99.90;;;;;;5031937;28;20202;-85
2022/01/25 08:51:54;;;;;;;9.13;8.17;;;2.60;99.90;;;;;;5033017;28;20268;-85
2022/01/25 08:54:36;;;;;;;8.10;7.32;;;2.60;99.90;;;;;;5033247;28;20264;-84
2022/01/25 08:57:11;;;;;;;8.30;7.43;;;2.60;99.90;;;;;;5060521;28;20208;-85
2022/01/25 08:59:47;;;;;;;10.82;8.02;;;2.60;99.90;;;;;;5094630;28;20192;-84
2022/01/25 09:02:16;;;;;;;9.27;8.27;;;2.60;99.90;;;;;;5095030;28;20284;-84
2022/01/25 09:04:44;;;;;;;9.17;8.27;;;2.60;99.90;;;;;;5094719;28;20224;-84
2022/01/25 09:07:14;;;;;;;8.83;7.97;;;2.70;99.90;;;;;;5094880;28;20291;-85
2022/01/25 09:09:42;;;;;;;12.30;8.73;;;2.70;99.90;;;;;;5093539;28;20260;-84
2022/01/25 09:12:11;;;;;;;8.97;8.07;;;2.70;99.90;;;;;;5094647;28;20201;-84
2022/01/25 09:14:40;;;;;;;10.15;8.30;;;2.60;99.90;;;;;;5094564;28;20220;-85
2022/01/25 09:17:10;;;;;;;10.02;7.82;;;2.50;99.90;;;;;;5094524;28;20239;-85
2022/01/25 09:19:39;;;;;;;7.68;6.65;;;2.50;99.90;;;;;;5094235;28;20223;-84
2022/01/25 09:22:08;;;;;;;9.65;7.50;;;2.50;99.90;;;;;;5095011;28;20272;-84
2022/01/25 09:24:38;;;;;;;7.87;7.00;;;2.50;99.90;;;;;;5094234;28;20320;-84
2022/01/25 09:27:08;;;;;;;7.23;6.53;;;2.50;99.90;;;;;;5094963;28;20203;-85
2022/01/25 09:29:38;;;;;;;6.73;6.07;;;2.50;99.90;;;;;;5094098;28;20211;-85
2022/01/25 09:32:07;;;;;;;7.95;7.15;;;2.50;99.90;;;;;;5094565;28;20287;-85
2022/01/25 09:34:36;;;;;;;7.32;6.63;;;2.60;99.90;;;;;;5094589;28;20227;-85
2022/01/25 09:37:04;;;;;;;10.07;7.53;;;2.60;99.90;;;;;;5094358;28;20204;-85
2022/01/25 09:39:33;;;;;;;8.77;7.10;;;2.60;99.90;;;;;;5094101;28;20201;-85
2022/01/25 09:42:09;;;;;;;10.50;7.43;;;2.70;99.90;;;;;;5094077;28;20204;-85
2022/01/25 09:44:39;;;;;;;9.47;7.27;;;2.60;99.90;;;;;;5094025;28;20320;-84
2022/01/25 09:47:09;;;;;;;8.20;6.82;;;2.50;99.90;;;;;;5094408;28;20291;-84
2022/01/25 09:49:39;;;;;;;6.80;5.73;;;2.50;99.90;;;;;;5093658;28;20212;-84
2022/01/25 09:52:09;;;;;;;12.53;7.53;;;2.50;99.90;;;;;;5093825;28;20279;-84
2022/01/25 09:54:37;;;;;;;7.68;6.88;;;2.50;99.90;;;;;;5094124;28;20319;-84
2022/01/25 09:57:07;;;;;;;6.80;6.07;;;2.50;99.90;;;;;;5094047;28;20261;-85
2022/01/25 09:59:36;;;;;;;9.40;7.30;;;2.50;99.90;;;;;;5093630;28;20235;-85
2022/01/25 10:02:04;;;;;;;7.55;6.78;;;2.50;99.90;;;;;;5094333;28;20283;-84
2022/01/25 10:04:39;;;;;;;7.95;7.15;;;2.50;99.90;;;;;;5093735;28;20224;-85
2022/01/25 10:07:09;;;;;;;12.85;7.47;;;2.60;99.90;;;;;;5094100;28;20295;-85
2022/01/25 10:09:40;;;;;;;6.65;6.05;;;2.60;99.90;;;;;;5093215;28;20427;-84
2022/01/25 10:12:20;;;;;;;10.63;7.30;;;2.60;99.90;;;;;;5093523;28;20212;-84
2022/01/25 10:14:56;;;;;;;7.10;6.40;;;2.60;99.90;;;;;;5093366;28;20216;-84
2022/01/25 10:17:31;;;;;;;7.32;6.57;;;2.60;99.90;;;;;;5093886;28;20341;-85
2022/01/25 10:19:59;;;;;;;7.05;6.32;;;2.60;99.90;;;;;;5093229;28;20287;-85
2022/01/25 10:22:28;;;;;;;10.83;7.63;;;2.60;99.90;;;;;;5093254;28;20267;-85
2022/01/25 10:24:56;;;;;;;7.30;6.60;;;2.60;99.90;;;;;;5093125;28;20307;-85
2022/01/25 10:30:09;;;;;;;10.00;7.07;;;2.70;99.90;;;;;;5093185;28;20282;-85
2022/01/25 10:32:39;;;;;;;7.47;6.50;;;2.70;99.90;;;;;;5093494;28;20219;-85
2022/01/25 10:35:15;;;;;;;7.85;6.68;;;2.80;99.90;;;;;;5093202;28;20235;-85
2022/01/25 10:37:44;;;;;;;6.65;6.00;;;2.80;99.90;;;;;;5093144;28;20283;-85
2022/01/25 10:40:13;;;;;;;7.45;6.75;;;2.70;99.90;;;;;;5092984;28;20282;-85
2022/01/25 10:42:47;;;;;;;7.72;6.30;;;2.70;99.90;;;;;;5092928;28;20209;-85
2022/01/25 10:45:17;;;;;;;8.77;7.57;;;2.70;99.90;;;;;;5092898;28;20316;-84
2022/01/25 10:47:49;;;;;;;10.45;7.88;;;2.60;99.90;;;;;;5092997;28;20240;-84
2022/01/25 10:50:20;;;;;;;9.73;8.35;;;2.60;99.90;;;;;;5092868;28;20216;-84
2022/01/25 10:53:03;;;;;;;21.47;10.00;;;2.60;99.90;;;;;;5093199;28;20212;-84
2022/01/25 10:55:38;;;;;;;11.98;8.45;;;2.60;99.90;;;;;;5093417;28;20308;-84
2022/01/25 10:58:08;;;;;;;12.63;7.30;;;2.60;99.90;;;;;;5093272;28;20200;-84
2022/01/25 11:00:38;;;;;;;10.40;8.20;;;2.60;99.90;;;;;;5092120;28;20291;-85
2022/01/25 11:03:07;;;;;;;8.60;7.50;;;2.70;99.90;;;;;;5092793;28;20204;-84
2022/01/25 11:05:38;;;;;;;7.57;6.78;;;2.70;99.90;;;;;;5092241;28;20308;-84
2022/01/25 11:08:14;;;;;;;11.05;8.05;;;2.70;99.90;;;;;;5092869;28;20208;-85
2022/01/25 11:10:47;;;;;;;12.23;8.45;;;2.70;99.90;;;;;;5092321;28;20220;-84
2022/01/25 11:13:35;;;;;;;7.22;6.47;;;2.70;99.90;;;;;;5092862;28;20209;-84
2022/01/25 11:16:06;;;;;;;8.55;6.88;;;2.80;99.90;;;;;;5092516;28;20231;-84
2022/01/25 11:18:35;;;;;;;8.68;7.25;;;2.80;99.90;;;;;;5092832;28;20291;-85
2022/01/25 11:21:05;;;;;;;8.75;7.38;;;2.80;99.90;;;;;;5092519;28;20204;-85
2022/01/25 11:23:35;;;;;;;7.65;6.95;;;2.90;99.90;;;;;;5092852;28;20253;-84
2022/01/25 11:26:05;;;;;;;9.00;6.40;;;2.90;99.90;;;;;;5092415;28;20230;-84
2022/01/25 11:28:37;;;;;;;13.13;6.20;;;2.90;99.90;;;;;;5092478;28;20215;-85
2022/01/25 11:31:09;;;;;;;9.65;7.50;;;2.90;99.90;;;;;;5092715;28;20239;-85
2022/01/25 11:33:42;;;;;;;8.55;6.90;;;2.90;99.90;;;;;;5094170;28;20202;-84
2022/01/25 11:36:11;;;;;;;8.30;5.97;;;2.90;99.90;;;;;;5096836;28;20232;-84
2022/01/25 11:38:44;;;;;;;7.30;6.60;;;2.80;99.90;;;;;;5096520;28;20267;-85
2022/01/25 11:41:16;;;;;;;9.43;7.13;;;2.80;99.90;;;;;;5096594;28;20207;-85
2022/01/25 11:44:06;;;;;;;7.45;6.40;;;2.80;99.90;;;;;;5096588;28;20242;-85
2022/01/25 11:46:35;;;;;;;6.07;5.55;;;2.90;99.90;;;;;;5096466;28;20227;-85
2022/01/25 11:49:10;;;;;;;6.82;6.13;;;2.80;99.90;;;;;;5096300;28;20291;-84
2022/01/25 11:51:38;;;;;;;6.63;5.97;;;2.90;99.90;;;;;;5096577;28;20276;-85
2022/01/25 11:54:08;;;;;;;7.97;6.80;;;2.80;99.90;;;;;;5096279;28;20283;-84
2022/01/25 11:56:37;;;;;;;7.15;6.22;;;2.80;99.90;;;;;;5096160;28;20243;-85
2022/01/25 11:59:07;;;;;;;9.05;7.13;;;2.80;99.90;;;;;;5095818;28;20209;-85
2022/01/25 12:01:36;;;;;;;8.57;7.25;;;2.70;99.90;;;;;;5096448;28;20235;-85
2022/01/25 12:04:07;;;;;;;7.53;6.72;;;2.70;99.90;;;;;;5095902;28;20218;-84
2022/01/25 12:06:43;;;;;;;7.32;5.95;;;2.70;99.90;;;;;;5096389;28;20282;-84
2022/01/25 12:09:18;;;;;;;6.97;5.70;;;2.70;99.90;;;;;;5095771;28;20231;-84
2022/01/25 12:11:50;;;;;;;8.13;6.97;;;2.70;99.90;;;;;;5096205;28;20230;-85
2022/01/25 12:14:27;;;;;;;9.63;7.05;;;2.80;99.90;;;;;;5096293;28;20292;-85
2022/01/25 12:16:59;;;;;;;7.70;6.18;;;2.80;99.90;;;;;;5095982;28;20300;-85
2022/01/25 12:19:36;;;;;;;7.15;6.43;;;2.80;99.90;;;;;;5095213;28;20205;-85
2022/01/25 12:22:07;;;;;;;8.20;6.53;;;2.80;99.90;;;;;;5095980;28;20302;-85
2022/01/25 12:24:51;;;;;;;6.00;5.50;;;2.80;99.90;;;;;;5095880;28;20227;-85
2022/01/25 12:27:24;;;;;;;8.55;6.68;;;2.80;99.90;;;;;;5096160;28;20204;-84
2022/01/25 12:30:07;;;;;;;7.03;5.85;;;2.80;99.90;;;;;;5095424;28;20353;-84
2022/01/25 12:32:37;;;;;;;7.20;6.50;;;2.80;99.90;;;;;;5095655;28;20235;-85
2022/01/25 12:35:13;;;;;;;11.02;7.75;;;2.80;99.90;;;;;;5095969;28;20258;-85
2022/01/25 12:37:59;;;;;;;8.70;6.45;;;2.80;99.90;;;;;;5095915;28;20239;-85
2022/01/25 12:40:37;;;;;;;7.60;6.80;;;2.80;99.90;;;;;;5095042;28;20214;-85
2022/01/25 12:43:08;;;;;;;7.43;6.30;;;2.80;99.90;;;;;;5095821;28;20200;-86
2022/01/25 12:45:48;;;;;;;7.55;6.85;;;2.80;99.90;;;;;;5094962;28;20233;-85
2022/01/25 12:48:20;;;;;;;7.65;6.35;;;2.80;99.90;;;;;;5095428;28;20204;-85
2022/01/25 12:50:51;;;;;;;11.55;6.60;;;2.80;99.90;;;;;;5094823;28;20208;-85
2022/01/25 12:53:23;;;;;;;7.97;6.50;;;2.80;99.90;;;;;;5095703;28;20295;-85
2022/01/25 12:55:55;;;;;;;7.43;6.72;;;2.80;99.90;;;;;;5095685;28;20224;-85
2022/01/25 12:58:26;;;;;;;6.10;5.53;;;2.80;99.90;;;;;;5095073;28;20201;-85
2022/01/25 13:00:59;;;;;;;8.13;7.43;;;2.80;99.90;;;;;;5094782;28;20228;-85
2022/01/25 13:03:30;;;;;;;8.02;7.22;;;2.80;99.90;;;;;;5095066;28;20204;-85
2022/01/25 13:06:02;;;;;;;8.27;7.40;;;2.80;99.90;;;;;;5094709;28;20228;-84
2022/01/25 13:08:35;;;;;;;9.02;7.88;;;2.80;99.90;;;;;;5095056;28;20224;-84
2022/01/25 13:11:43;;;;;;;9.15;7.45;;;2.70;99.90;;;;;;5094834;28;20208;-85
2022/01/25 13:14:43;;;;;;;7.90;7.10;;;2.70;99.90;;;;;;5095109;28;20268;-84
2022/01/25 13:17:16;;;;;;;11.35;9.02;;;2.70;99.90;;;;;;5094921;28;20208;-84
2022/01/25 13:19:49;;;;;;;14.63;9.20;;;2.70;99.90;;;;;;5094142;28;20260;-84
2022/01/25 13:22:21;;;;;;;7.53;6.68;;;2.70;99.90;;;;;;5095002;28;20311;-85
2022/01/25 13:24:57;;;;;;;12.50;9.00;;;2.70;99.90;;;;;;5094976;28;20252;-85
2022/01/25 13:27:30;;;;;;;8.60;7.70;;;2.70;99.90;;;;;;5094834;28;20283;-85
2022/01/25 13:32:50;;;;;;;8.65;7.72;;;2.70;99.90;;;;;;5094601;28;20204;-85
2022/01/25 13:35:22;;;;;;;8.45;7.55;;;2.70;99.90;;;;;;5095029;28;20230;-84
2022/01/25 13:38:06;;;;;;;9.52;8.13;;;2.70;99.90;;;;;;5094480;28;20205;-84
2022/01/25 13:40:46;;;;;;;12.15;9.52;;;2.70;99.90;;;;;;5093812;28;20214;-85
2022/01/25 13:46:14;;;;;;;9.93;8.10;;;2.70;99.90;;;;;;5094344;28;20228;-85
2022/01/25 13:48:44;;;;;;;9.30;7.95;;;2.70;99.90;;;;;;5094031;28;20200;-85
2022/01/25 13:51:15;;;;;;;9.25;7.53;;;2.60;99.90;;;;;;5093958;28;20212;-85
2022/01/25 13:53:49;;;;;;;11.00;7.35;;;2.60;99.90;;;;;;5094072;28;20211;-84
2022/01/25 13:56:18;;;;;;;9.77;7.38;;;2.60;99.90;;;;;;5093863;28;20323;-84
2022/01/25 13:58:49;;;;;;;11.02;8.13;;;2.70;99.90;;;;;;5093602;28;20197;-84
2022/01/25 14:01:20;;;;;;;11.67;8.27;;;2.70;99.90;;;;;;5094333;28;20205;-84
2022/01/25 14:03:57;;;;;;;11.97;9.60;;;2.70;99.90;;;;;;5094386;28;20241;-84
2022/01/25 14:06:27;;;;;;;9.45;8.45;;;2.70;99.90;;;;;;5093671;28;20258;-84
2022/01/25 14:09:03;;;;;;;8.70;7.88;;;2.60;99.90;;;;;;5093272;28;20212;-84
2022/01/25 14:11:50;;;;;;;12.27;9.30;;;2.60;99.90;;;;;;5093650;28;20227;-84
2022/01/25 14:23:07;;;;;;;9.48;8.48;;;2.50;99.90;;;;;;5093653;28;20209;-85
2022/01/25 14:25:38;;;;;;;10.77;9.00;;;2.50;99.90;;;;;;5093627;28;20228;-85
2022/01/25 14:28:09;;;;;;;9.18;7.82;;;2.50;99.90;;;;;;5093724;28;20269;-85
2022/01/25 14:30:43;;;;;;;11.45;9.27;;;2.50;99.90;;;;;;5093082;28;20210;-85
2022/01/25 14:33:14;;;;;;;9.00;7.88;;;2.50;99.90;;;;;;5093538;28;20200;-85
2022/01/25 14:35:47;;;;;;;14.45;9.85;;;2.50;99.90;;;;;;5093122;28;20227;-85